createdAt,value
2023-08-25T00:01:20.727Z,10.40
2023-08-25T00:04:33.367Z,10.53
2023-08-25T00:07:45.561Z,10.48
2023-08-25T00:10:57.743Z,10.13
2023-08-25T00:14:10.079Z,9.43
2023-08-25T00:17:22.876Z,9.90
2023-08-25T00:20:35.005Z,10.18
2023-08-25T00:23:47.287Z,10.15
2023-08-25T00:26:59.951Z,10.18
2023-08-25T00:30:14.214Z,10.33
2023-08-25T00:33:26.894Z,10.73
2023-08-25T00:36:39.945Z,10.95
2023-08-25T00:39:52.534Z,10.85
2023-08-25T00:43:04.671Z,9.60
2023-08-25T00:46:18.404Z,10.20
2023-08-25T00:49:32.582Z,10.50
2023-08-25T00:52:45.831Z,10.45
2023-08-25T00:56:00.193Z,10.98
2023-08-25T00:59:13.227Z,10.98
2023-08-25T01:02:25.975Z,10.43
2023-08-25T01:05:40.857Z,11.33
2023-08-25T01:08:53.775Z,11.03
2023-08-25T01:12:13.565Z,11.20
2023-08-25T01:15:31.960Z,10.98
2023-08-25T01:18:47.443Z,11.83
2023-08-25T01:22:03.150Z,11.68
2023-08-25T01:25:35.950Z,12.30
2023-08-25T01:28:49.961Z,13.58
2023-08-25T01:32:02.142Z,13.65
2023-08-25T01:35:16.372Z,13.25
2023-08-25T01:38:35.064Z,12.70
2023-08-25T01:41:52.410Z,13.18
2023-08-25T01:45:05.627Z,14.08
2023-08-25T01:48:20.805Z,15.43
2023-08-25T01:51:36.039Z,15.28
2023-08-25T01:54:49.317Z,14.23
2023-08-25T01:58:02.003Z,15.65
2023-08-25T02:01:14.462Z,16.38
2023-08-25T02:04:27.186Z,17.18
2023-08-25T02:07:39.577Z,15.55
2023-08-25T02:10:53.483Z,14.83
2023-08-25T02:14:05.939Z,14.48
2023-08-25T02:17:18.431Z,14.55
2023-08-25T02:20:30.973Z,15.20
2023-08-25T02:23:43.532Z,14.63
2023-08-25T02:26:55.726Z,15.05
2023-08-25T02:30:08.787Z,14.53
2023-08-25T02:33:22.335Z,15.80
2023-08-25T02:36:34.818Z,16.85
2023-08-25T02:39:47.295Z,17.08
2023-08-25T02:43:00.942Z,17.43
2023-08-25T02:46:13.514Z,22.80
2023-08-25T02:49:26.037Z,17.10
2023-08-25T02:52:38.431Z,15.53
2023-08-25T02:55:51.603Z,17.70
2023-08-25T02:59:03.832Z,15.03
2023-08-25T03:02:16.467Z,15.60
2023-08-25T03:05:29.168Z,15.78
2023-08-25T03:08:43.298Z,14.95
2023-08-25T03:11:55.822Z,14.68
2023-08-25T03:15:08.511Z,14.10
2023-08-25T03:18:21.628Z,15.18
2023-08-25T03:21:34.283Z,13.28
2023-08-25T03:24:46.610Z,14.25
2023-08-25T03:28:00.956Z,13.90
2023-08-25T03:31:13.727Z,13.30
2023-08-25T03:34:26.473Z,13.55
2023-08-25T03:37:39.040Z,13.48
2023-08-25T03:40:51.821Z,13.23
2023-08-25T03:44:04.347Z,12.68
2023-08-25T03:47:16.761Z,15.03
2023-08-25T03:50:29.771Z,17.60
2023-08-25T03:53:42.792Z,22.25
2023-08-25T03:56:55.115Z,31.58
2023-08-25T04:00:09.110Z,35.98
2023-08-25T04:03:23.599Z,42.70
2023-08-25T04:06:38.383Z,45.28
2023-08-25T04:09:50.684Z,49.60
2023-08-25T04:13:03.385Z,49.05
2023-08-25T04:16:16.274Z,55.23
2023-08-25T04:19:30.674Z,59.58
2023-08-25T04:22:43.069Z,59.68
2023-08-25T04:25:55.828Z,58.10
2023-08-25T04:29:10.274Z,50.65
2023-08-25T04:32:24.026Z,64.28
2023-08-25T04:35:38.082Z,51.83
2023-08-25T04:38:51.150Z,42.35
2023-08-25T04:42:04.565Z,41.08
2023-08-25T04:45:19.520Z,43.83
2023-08-25T04:48:31.949Z,101.20
2023-08-25T04:51:44.470Z,45.63
2023-08-25T04:54:57.050Z,37.15
2023-08-25T04:58:10.803Z,36.10
2023-08-25T05:01:23.329Z,40.93
2023-08-25T05:04:35.849Z,40.80
2023-08-25T05:07:48.936Z,42.18
2023-08-25T05:11:01.345Z,41.78
2023-08-25T05:14:13.669Z,48.98
2023-08-25T05:17:27.382Z,92.28
2023-08-25T05:20:41.423Z,43.00
2023-08-25T05:23:54.622Z,35.80
2023-08-25T05:27:06.916Z,30.03
2023-08-25T05:30:20.964Z,22.50
2023-08-25T05:33:34.165Z,24.48
2023-08-25T05:37:00.848Z,30.55
2023-08-25T05:40:18.191Z,23.70
2023-08-25T05:43:32.575Z,18.85
2023-08-25T05:46:46.439Z,39.30
2023-08-25T05:49:58.599Z,21.13
2023-08-25T05:53:12.088Z,41.10
2023-08-25T05:56:26.765Z,18.10
2023-08-25T05:59:40.636Z,19.58
2023-08-25T06:02:53.021Z,14.83
2023-08-25T06:06:05.678Z,55.43
2023-08-25T06:09:19.187Z,19.80
2023-08-25T06:12:31.346Z,16.58
2023-08-25T06:15:43.780Z,10.83
2023-08-25T06:18:56.446Z,11.50
2023-08-25T06:22:10.750Z,9.53
2023-08-25T06:25:23.759Z,28.53
2023-08-25T06:28:36.705Z,12.75
2023-08-25T06:31:49.159Z,9.10
2023-08-25T06:35:01.595Z,10.08
2023-08-25T06:38:14.229Z,12.33
2023-08-25T06:41:26.525Z,12.23
2023-08-25T06:44:39.065Z,31.45
2023-08-25T06:47:52.625Z,26.55
2023-08-25T06:51:05.262Z,22.23
2023-08-25T06:54:17.564Z,13.83
2023-08-25T06:57:30.046Z,17.63
2023-08-25T07:00:42.414Z,17.70
2023-08-25T07:03:54.594Z,13.63
2023-08-25T07:07:08.411Z,11.13
2023-08-25T07:10:21.525Z,61.93
2023-08-25T07:13:34.462Z,144.88
2023-08-25T07:16:47.057Z,19.40
2023-08-25T07:19:59.814Z,15.40
2023-08-25T07:23:12.743Z,12.18
2023-08-25T07:26:26.962Z,17.83
2023-08-25T07:29:42.256Z,14.88
2023-08-25T07:32:57.276Z,9.98
2023-08-25T07:36:12.508Z,8.73
2023-08-25T07:39:25.232Z,6.95
2023-08-25T07:42:37.768Z,8.85
2023-08-25T07:45:50.020Z,7.50
2023-08-25T07:49:02.406Z,8.43
2023-08-25T07:52:14.788Z,9.95
2023-08-25T07:55:28.100Z,8.83
2023-08-25T07:58:40.396Z,9.20
2023-08-25T08:01:52.738Z,7.98
2023-08-25T08:05:05.557Z,8.90
2023-08-25T08:08:18.220Z,40.20
2023-08-25T08:11:30.561Z,16.68
2023-08-25T08:14:46.549Z,14.60
2023-08-25T08:17:57.506Z,9.85
2023-08-25T08:21:10.160Z,10.10
2023-08-25T08:24:29.336Z,8.38
2023-08-25T08:27:37.524Z,9.88
2023-08-25T08:30:49.948Z,9.10
2023-08-25T08:34:02.414Z,8.85
2023-08-25T08:37:14.977Z,8.60
2023-08-25T08:40:30.241Z,7.95
2023-08-25T08:43:45.669Z,20.83
2023-08-25T08:46:59.163Z,39.80
2023-08-25T08:50:13.796Z,14.90
2023-08-25T08:53:26.311Z,15.13
2023-08-25T08:56:40.585Z,17.43
2023-08-25T08:59:53.813Z,9.10
2023-08-25T09:03:09.629Z,29.70
2023-08-25T09:06:22.396Z,39.15
2023-08-25T09:09:34.705Z,14.43
2023-08-25T09:12:47.119Z,8.90
2023-08-25T09:16:00.753Z,7.23
2023-08-25T09:19:14.066Z,8.38
2023-08-25T09:22:26.983Z,9.00
2023-08-25T09:25:39.545Z,8.25
2023-08-25T09:28:51.865Z,16.73
2023-08-25T09:32:04.074Z,11.65
2023-08-25T09:35:24.277Z,8.63
2023-08-25T09:38:45.547Z,6.38
2023-08-25T09:41:53.110Z,7.30
2023-08-25T09:45:10.700Z,6.35
2023-08-25T09:48:23.674Z,5.63
2023-08-25T09:51:43.095Z,5.40
2023-08-25T09:54:56.762Z,6.00
2023-08-25T09:58:10.601Z,6.00
2023-08-25T10:01:23.698Z,6.43
2023-08-25T10:04:36.340Z,5.65
2023-08-25T10:07:50.205Z,5.83
2023-08-25T10:11:04.378Z,5.75
2023-08-25T10:14:19.216Z,7.78
2023-08-25T10:17:32.486Z,7.53
2023-08-25T10:20:46.768Z,5.70
2023-08-25T10:24:00.827Z,9.05
2023-08-25T10:27:14.942Z,5.63
2023-08-25T10:30:29.293Z,6.98
2023-08-25T10:33:56.790Z,5.45
2023-08-25T10:37:18.001Z,6.43
2023-08-25T10:40:46.694Z,5.75
2023-08-25T10:44:01.560Z,5.90
2023-08-25T10:47:14.351Z,6.98
2023-08-25T10:50:31.827Z,5.50
2023-08-25T10:53:47.684Z,5.83
2023-08-25T10:57:00.036Z,5.68
2023-08-25T11:00:40.698Z,5.65
2023-08-25T11:04:09.687Z,5.43
2023-08-25T11:07:42.739Z,6.10
2023-08-25T11:10:57.721Z,5.70
2023-08-25T11:14:10.288Z,5.67
2023-08-25T11:17:22.633Z,6.48
2023-08-25T11:20:35.968Z,6.15
2023-08-25T11:23:50.372Z,6.60
2023-08-25T11:27:02.992Z,6.60
2023-08-25T11:30:19.545Z,5.98
2023-08-25T11:33:32.035Z,6.45
2023-08-25T11:36:44.755Z,6.78
2023-08-25T11:39:57.126Z,5.78
2023-08-25T11:43:09.838Z,6.05
2023-08-25T11:46:23.173Z,5.90
2023-08-25T11:49:38.270Z,6.43
2023-08-25T11:52:50.903Z,6.15
2023-08-25T11:56:13.160Z,5.53
2023-08-25T11:59:28.975Z,6.45
2023-08-25T12:02:41.993Z,6.03
2023-08-25T12:05:56.068Z,5.88
2023-08-25T12:09:08.880Z,5.93
2023-08-25T12:12:21.176Z,6.05
2023-08-25T12:15:36.087Z,5.90
2023-08-25T12:18:49.690Z,5.98
2023-08-25T12:22:03.004Z,6.35
2023-08-25T12:25:16.087Z,6.98
2023-08-25T12:28:28.384Z,6.60
2023-08-25T12:31:40.601Z,5.60
2023-08-25T12:34:52.857Z,6.45
2023-08-25T12:38:05.030Z,6.20
2023-08-25T12:41:17.190Z,5.80
2023-08-25T12:44:29.750Z,6.28
2023-08-25T12:47:41.976Z,6.38
2023-08-25T12:50:54.435Z,6.40
2023-08-25T12:54:07.674Z,6.05
2023-08-25T12:57:19.839Z,6.25
2023-08-25T13:00:32.299Z,6.43
2023-08-25T13:03:44.740Z,6.40
2023-08-25T13:06:57.039Z,6.85
2023-08-25T13:10:11.344Z,6.40
2023-08-25T13:13:23.662Z,6.38
2023-08-25T13:16:36.578Z,7.13
2023-08-25T13:19:48.812Z,7.45
2023-08-25T13:23:01.232Z,6.90
2023-08-25T13:26:13.572Z,9.78
2023-08-25T13:29:25.976Z,6.53
2023-08-25T13:32:38.264Z,7.10
2023-08-25T13:35:52.627Z,6.40
2023-08-25T13:39:05.094Z,6.83
2023-08-25T13:42:17.784Z,7.30
2023-08-25T13:45:30.222Z,7.43
2023-08-25T13:48:42.609Z,6.78
2023-08-25T13:51:55.065Z,7.20
2023-08-25T13:55:08.246Z,5.88
2023-08-25T13:58:21.601Z,6.80
2023-08-25T14:01:33.815Z,15.80
2023-08-25T14:04:46.546Z,7.05
2023-08-25T14:07:59.030Z,6.90
2023-08-25T14:11:11.803Z,6.83
2023-08-25T14:14:24.028Z,6.78
2023-08-25T14:17:36.299Z,6.88
2023-08-25T14:20:48.972Z,6.15
2023-08-25T14:24:01.881Z,6.63
2023-08-25T14:27:14.379Z,6.68
2023-08-25T14:30:26.700Z,6.88
2023-08-25T14:33:38.904Z,6.25
2023-08-25T14:36:51.558Z,7.35
2023-08-25T14:40:04.287Z,6.63
2023-08-25T14:43:16.664Z,7.00
2023-08-25T14:46:30.901Z,6.58
2023-08-25T14:49:44.198Z,7.05
2023-08-25T14:52:56.307Z,8.45
2023-08-25T14:56:09.343Z,8.08
2023-08-25T14:59:21.422Z,9.78
2023-08-25T15:02:34.199Z,9.90
2023-08-25T15:05:46.484Z,7.50
2023-08-25T15:08:59.473Z,6.55
2023-08-25T15:12:13.075Z,6.60
2023-08-25T15:15:25.239Z,6.43
2023-08-25T15:18:37.815Z,7.03
2023-08-25T15:21:49.954Z,7.25
2023-08-25T15:25:02.189Z,7.03
2023-08-25T15:28:14.507Z,6.35
2023-08-25T15:31:26.732Z,7.00
2023-08-25T15:34:39.999Z,6.55
2023-08-25T15:37:52.528Z,6.73
2023-08-25T15:41:08.817Z,6.88
2023-08-25T15:44:21.198Z,7.30
2023-08-25T15:47:35.361Z,6.78
2023-08-25T15:50:53.202Z,6.08
2023-08-25T15:54:05.285Z,6.78
2023-08-25T15:57:18.406Z,5.88
2023-08-25T16:00:31.899Z,6.30
2023-08-25T16:03:44.084Z,6.05
2023-08-25T16:06:56.633Z,5.70
2023-08-25T16:10:09.341Z,6.33
2023-08-25T16:13:21.530Z,7.38
2023-08-25T16:16:33.814Z,6.15
2023-08-25T16:19:46.067Z,6.20
2023-08-25T16:22:58.681Z,8.90
2023-08-25T16:26:11.086Z,7.33
2023-08-25T16:29:23.167Z,6.18
2023-08-25T16:32:35.786Z,6.88
2023-08-25T16:35:47.929Z,7.43
2023-08-25T16:39:00.097Z,9.23
2023-08-25T16:42:13.238Z,5.83
2023-08-25T16:45:25.723Z,5.70
2023-08-25T16:48:37.928Z,5.65
2023-08-25T16:51:50.378Z,6.43
2023-08-25T16:55:02.804Z,6.20
2023-08-25T16:58:15.605Z,6.70
2023-08-25T17:01:28.424Z,6.08
2023-08-25T17:04:40.828Z,11.00
2023-08-25T17:07:57.737Z,5.78
2023-08-25T17:11:11.351Z,5.78
2023-08-25T17:14:23.541Z,5.40
2023-08-25T17:17:35.785Z,6.65
2023-08-25T17:20:48.075Z,4.53
2023-08-25T17:24:01.335Z,4.93
2023-08-25T17:27:14.290Z,5.90
2023-08-25T17:30:26.718Z,6.53
2023-08-25T17:33:39.855Z,7.60
2023-08-25T17:36:52.474Z,6.75
2023-08-25T17:40:05.991Z,6.88
2023-08-25T17:43:18.210Z,7.18
2023-08-25T17:46:30.908Z,6.45
2023-08-25T17:49:43.139Z,9.63
2023-08-25T17:52:55.394Z,7.70
2023-08-25T17:56:08.259Z,7.23
2023-08-25T17:59:20.494Z,8.00
2023-08-25T18:02:32.790Z,8.05
2023-08-25T18:05:48.301Z,8.68
2023-08-25T18:09:00.845Z,7.90
2023-08-25T18:12:15.676Z,8.63
2023-08-25T18:15:27.869Z,7.45
2023-08-25T18:18:40.168Z,9.13
2023-08-25T18:21:52.347Z,7.48
2023-08-25T18:25:04.879Z,6.75
2023-08-25T18:28:17.365Z,7.10
2023-08-25T18:31:32.163Z,6.98
2023-08-25T18:34:44.643Z,7.10
2023-08-25T18:37:56.920Z,10.43
2023-08-25T18:41:09.181Z,6.93
2023-08-25T18:44:21.180Z,7.25
2023-08-25T18:47:33.611Z,7.25
2023-08-25T18:50:45.943Z,6.95
2023-08-25T18:53:58.281Z,6.80
2023-08-25T18:57:10.945Z,11.58
2023-08-25T19:00:24.482Z,6.75
2023-08-25T19:03:37.027Z,7.05
2023-08-25T19:06:49.963Z,7.80
2023-08-25T19:10:02.197Z,7.73
2023-08-25T19:13:16.407Z,8.85
2023-08-25T19:16:28.772Z,8.73
2023-08-25T19:19:41.566Z,9.78
2023-08-25T19:22:55.026Z,9.03
2023-08-25T19:26:11.792Z,10.63
2023-08-25T19:32:34.287Z,8.25
2023-08-25T19:35:46.642Z,8.60
2023-08-25T19:38:59.667Z,7.65
2023-08-25T19:42:12.727Z,8.43
2023-08-25T19:45:25.157Z,8.00
2023-08-25T19:48:39.450Z,8.25
2023-08-25T19:51:51.927Z,18.60
2023-08-25T19:55:04.589Z,8.58
2023-08-25T19:58:17.424Z,8.60
2023-08-25T20:01:29.747Z,8.73
2023-08-25T20:04:42.200Z,8.05
2023-08-25T20:07:55.353Z,8.23
2023-08-25T20:11:09.862Z,8.38
2023-08-25T20:14:22.268Z,8.18
2023-08-25T20:17:35.493Z,8.00
2023-08-25T20:20:50.265Z,8.53
2023-08-25T20:24:03.346Z,8.43
2023-08-25T20:27:15.602Z,7.75
2023-08-25T20:30:27.983Z,7.35
2023-08-25T20:33:40.313Z,7.60
2023-08-25T20:36:52.725Z,7.55
2023-08-25T20:40:05.052Z,7.18
2023-08-25T20:43:17.554Z,7.23
2023-08-25T20:46:30.087Z,7.60
2023-08-25T20:49:42.426Z,7.43
2023-08-25T20:52:54.863Z,6.80
2023-08-25T20:56:08.841Z,6.53
2023-08-25T20:59:21.109Z,6.75
2023-08-25T21:02:33.640Z,9.10
2023-08-25T21:05:46.081Z,8.80
2023-08-25T21:08:58.705Z,7.23
2023-08-25T21:12:12.658Z,7.78
2023-08-25T21:15:24.933Z,7.90
2023-08-25T21:18:37.007Z,6.65
2023-08-25T21:21:49.642Z,7.38
2023-08-25T21:25:01.948Z,6.70
2023-08-25T21:28:14.925Z,7.90
2023-08-25T21:31:27.717Z,12.13
2023-08-25T21:34:41.164Z,9.10
2023-08-25T21:37:53.375Z,7.80
2023-08-25T21:41:07.012Z,7.75
2023-08-25T21:44:20.256Z,7.78
2023-08-25T21:47:32.609Z,7.98
2023-08-25T21:50:47.103Z,7.98
2023-08-25T21:53:59.631Z,7.88
2023-08-25T21:57:12.242Z,7.80
2023-08-25T22:00:25.271Z,7.43
2023-08-25T22:03:37.741Z,7.88
2023-08-25T22:06:51.176Z,7.70
2023-08-25T22:10:04.903Z,8.33
2023-08-25T22:13:17.806Z,7.60
2023-08-25T22:16:30.243Z,8.35
2023-08-25T22:19:47.677Z,7.88
2023-08-25T22:22:57.239Z,7.68
2023-08-25T22:26:09.631Z,8.13
2023-08-25T22:29:21.716Z,7.80
2023-08-25T22:35:48.439Z,7.50
2023-08-25T22:39:01.883Z,8.48
2023-08-25T22:42:14.821Z,7.80
2023-08-25T22:45:27.478Z,8.45
2023-08-25T22:48:39.549Z,8.33
2023-08-25T22:51:51.878Z,8.23
2023-08-25T22:55:04.357Z,7.65
2023-08-25T22:58:16.766Z,6.70
2023-08-25T23:01:29.607Z,6.83
2023-08-25T23:04:41.903Z,6.25
2023-08-25T23:07:54.354Z,6.15
2023-08-25T23:11:07.540Z,6.03
2023-08-25T23:14:19.965Z,6.40
2023-08-25T23:17:32.554Z,5.58
2023-08-25T23:20:45.576Z,6.35
2023-08-25T23:23:57.900Z,6.50
2023-08-25T23:27:11.067Z,7.00
2023-08-25T23:30:23.515Z,6.78
2023-08-25T23:33:35.562Z,7.88
2023-08-25T23:36:49.310Z,6.90
2023-08-25T23:40:02.485Z,7.05
2023-08-25T23:43:14.685Z,7.28
2023-08-25T23:46:27.068Z,7.43
2023-08-25T23:49:39.559Z,6.70
2023-08-25T23:52:51.638Z,7.38
2023-08-25T23:56:04.629Z,6.48
2023-08-25T23:59:17.097Z,6.30
